Latest Coastal Weather Observations for Whyalla

IDS60701

Issued at 11:31 am CST Monday 26 September 2016 (issued every 10 minutes, with the page automatically refreshed every 10 minutes)

About coastal observations | Map of coastal stations | Coastal observations for SA | Marine services | Other Formats
Station Details ID: 018120 Name: WHYALLA AERO Lat: -33.05 Lon: 137.52 Height: 9.3 m
Data from the previous 72 hours. | See also: Recent months at Whyalla
Date/Time
CST
Temp
°C
Wind Pressure Rain since
9am
mm
Weather Cloud Vis
km
Sea
Height
m
Swell
Dir  Spd
kts
Gust
kts
hPa Trend Height
m
Period
s
Dir
26/11:30am 21.0 WNW 18 25 1012.6 - 0.0 - Cloudy 10 - - - -
26/11:00am 21.3 NW 17 25 1012.7 - 0.0 - Partly cloudy 10 - - - -
26/10:30am 20.2 N 14 19 1013.0 - 0.0 - - 10 - - - -
26/10:00am 18.9 N 13 16 1013.4 - 0.0 - - 10 - - - -
26/09:30am 17.8 NNW 16 20 1013.8 - 0.0 - Partly cloudy 10 - - - -
26/09:00am 17.0 NNW 15 20 1013.9 - 0.2 - - 10 - - - -
26/08:30am 15.8 N 13 16 1013.9 - 0.2 - - 10 - - - -
26/08:00am 11.9 NW 10 13 1013.7 - 0.2 - - 10 - - - -
26/07:30am 9.0 NW 10 13 1013.1 - 0.2 - - 10 - - - -
26/07:00am 8.3 NW 7 9 1012.8 - 0.2 - Partly cloudy 10 - - - -
26/06:30am 6.1 NW 5 7 1012.7 - 0.2 - - 10 - - - -
26/06:00am 5.7 NW 6 7 1012.8 - 0.2 - Partly cloudy 10 - - - -
26/05:30am 5.5 NW 7 9 1012.9 - 0.2 - - 10 - - - -
26/05:00am 5.5 NNW 5 7 1012.4 - 0.2 - - 10 - - - -
26/04:30am 5.7 NW 5 6 1012.6 - 0.2 - - 10 - - - -
26/04:00am 6.1 NNW 7 8 1012.6 - 0.2 - - 10 - - - -
26/03:30am 5.8 NNW 7 9 1013.0 - 0.2 - - 10 - - - -
26/03:00am 5.7 WNW 6 7 1013.2 - 0.2 - - 10 - - - -
26/02:30am 6.8 NNE 5 6 1013.2 - 0.2 - - 10 - - - -
26/02:00am 7.6 N 6 7 1014.0 - 0.2 - - 10 - - - -
26/01:30am 7.2 NNW 7 8 1014.5 - 0.2 - - 10 - - - -
26/01:00am 7.7 N 7 8 1015.0 - 0.2 - - 10 - - - -
26/12:30am 8.1 N 7 7 1015.3 - 0.2 - - 10 - - - -
26/12:00am 9.0 N 7 8 1015.4 - 0.2 - - 10 - - - -
 
Date/Time
CST
Temp
°C
Wind Pressure Rain since
9am
mm
Weather Cloud Vis
km
Sea
Height
m
Swell
Dir  Spd
kts
Gust
kts
hPa Trend Height
m
Period
s
Dir
25/11:30pm 9.2 NNW 7 8 1015.7 - 0.2 - Partly cloudy 10 - - - -
25/11:00pm 9.5 NNW 7 8 1015.7 - 0.2 - Partly cloudy 10 - - - -
25/10:30pm 9.6 N 7 9 1015.7 - 0.2 - Partly cloudy 10 - - - -
25/10:00pm 10.3 N 6 8 1015.7 - 0.2 - - 10 - - - -
25/09:30pm 12.0 NNE 7 9 1015.5 - 0.2 - Partly cloudy 10 - - - -
25/09:00pm 13.4 NE 5 7 1015.4 - 0.2 - Partly cloudy 10 - - - -
25/08:30pm 13.1 NE 5 7 1015.2 - 0.2 - Cloudy 10 - - - -
25/08:00pm 13.7 NE 6 9 1015.1 - 0.2 - Cloudy 10 - - - -
25/07:30pm 12.5 NE 5 6 1014.9 - 0.2 - Cloudy 10 - - - -
25/07:00pm 12.3 ENE 5 6 1014.5 - 0.2 - Partly cloudy 10 - - - -
25/06:30pm 12.9 ENE 6 8 1014.3 - 0.2 - - 10 - - - -
25/06:00pm 14.1 E 6 8 1014.1 - 0.2 - Mostly clear 10 - - - -
25/05:30pm 14.9 ENE 10 13 1013.9 - 0.2 - - 10 - - - -
25/05:00pm 15.0 E 11 15 1013.8 - 0.2 - - 10 - - - -
25/04:30pm 15.3 E 11 15 1013.9 - 0.2 - Partly cloudy 10 - - - -
25/04:00pm 15.4 E 11 15 1014.0 - 0.2 - Partly cloudy 10 - - - -
25/03:30pm 15.1 ENE 11 15 1014.1 - 0.2 - Partly cloudy 10 - - - -
25/03:00pm 14.7 E 10 14 1014.4 - 0.2 - Mostly cloudy 10 - - - -
25/02:30pm 14.5 ESE 7 9 1014.5 - 0.2 - Partly cloudy 10 - - - -
25/02:00pm 15.2 E 9 11 1014.8 - 0.2 - Partly cloudy 10 - - - -
25/01:30pm 14.8 E 9 14 1015.6 - 0.2 - Cloudy 10 - - - -
25/01:00pm 15.1 ESE 8 11 1016.0 - 0.2 - Partly cloudy 10 - - - -
25/12:30pm 14.8 ESE 8 12 1016.3 - 0.2 - Cloudy 10 - - - -
25/12:00pm 14.0 ESE 8 11 1016.5 - 0.0 - Cloudy 10 - - - -
25/11:30am 13.8 SE 7 10 1016.9 - 0.0 - Partly cloudy 10 - - - -
25/11:00am 14.5 S 3 7 1017.0 - 0.0 - Partly cloudy 10 - - - -
25/10:30am 13.8 SSW 6 9 1017.2 - 0.0 - Partly cloudy 10 - - - -
25/10:00am 13.1 WSW 6 9 1017.6 - 0.0 - Partly cloudy 10 - - - -
25/09:30am 12.8 SSW 7 10 1017.4 - 0.0 - Partly cloudy 10 - - - -
25/09:00am 12.6 W 4 6 1017.3 - 9.6 - - 10 - - - -
25/08:30am 11.7 W 6 7 1017.5 - 9.6 - - 10 - - - -
25/08:00am 10.5 W 5 8 1017.4 - 9.6 - - 10 - - - -
25/07:30am 8.5 WNW 5 6 1017.3 - 9.6 - - 10 - - - -
25/07:00am 6.4 WNW 6 7 1017.3 - 9.6 - - 10 - - - -
25/06:30am 4.6 WNW 5 6 1016.9 - 9.6 - - 10 - - - -
25/06:00am 4.3 NW 6 7 1016.5 - 9.6 - - 10 - - - -
25/05:30am 4.4 NW 6 7 1016.0 - 9.6 - - 10 - - - -
25/05:00am 4.4 NW 6 6 1015.6 - 9.6 - - 10 - - - -
25/04:30am 4.4 NW 5 6 1015.3 - 9.6 - - 10 - - - -
25/04:00am 4.7 WNW 6 7 1015.0 - 9.6 - - 10 - - - -
25/03:30am 4.8 WNW 6 6 1014.8 - 9.6 - - 10 - - - -
25/03:00am 5.3 WNW 6 7 1014.5 - 9.6 - - 10 - - - -
25/02:30am 5.7 W 6 7 1014.6 - 9.6 - - 10 - - - -
25/02:00am 6.0 W 6 7 1015.0 - 9.6 - - 10 - - - -
25/01:30am 6.4 W 7 8 1015.2 - 9.6 - - 10 - - - -
25/01:00am 7.1 W 4 6 1014.9 - 9.6 - - 10 - - - -
25/12:30am 7.6 WSW 6 8 1014.9 - 9.6 - - 10 - - - -
25/12:00am 7.9 W 5 6 1014.9 - 9.6 - - 10 - - - -
 
Date/Time
CST
Temp
°C
Wind Pressure Rain since
9am
mm
Weather Cloud Vis
km
Sea
Height
m
Swell
Dir  Spd
kts
Gust
kts
hPa Trend Height
m
Period
s
Dir
24/11:30pm 8.7 WSW 7 9 1014.9 - 9.6 - - 10 - - - -
24/11:00pm 9.2 WSW 7 9 1014.9 - 9.6 - - 10 - - - -
24/10:30pm 9.3 WSW 6 9 1014.9 - 9.6 - - 10 - - - -
24/10:00pm 9.3 WNW 5 5 1014.5 - 9.6 - - 10 - - - -
24/09:30pm 10.0 W 5 6 1014.3 - 9.6 - Partly cloudy 10 - - - -
24/09:00pm 10.2 SW 6 7 1014.1 - 9.6 - Mostly clear 10 - - - -
24/08:30pm 10.7 WSW 6 9 1013.8 - 9.6 - Partly cloudy 10 - - - -
24/08:00pm 11.2 SW 9 15 1013.4 - 9.6 - Partly cloudy 10 - - - -
24/07:30pm 11.4 SW 9 11 1013.0 - 9.6 - Partly cloudy 10 - - - -
24/07:00pm 11.5 SW 10 15 1012.3 - 9.6 - Partly cloudy 10 - - - -
24/06:30pm 11.7 SW 13 19 1011.7 - 9.0 - Cloudy 7 - - - -
24/06:04pm 11.7 SW 17 22 1011.0 - 8.0 - Partly cloudy 10 - - - -
24/06:03pm 11.6 SW 17 22 1011.0 - 8.0 - Partly cloudy 10 - - - -
24/06:00pm 11.7 SW 17 22 1010.9 - 7.8 Recent precip. Cloudy 10 - - - -
24/05:35pm 12.0 SW 17 28 1010.1 - 6.6 - Partly cloudy 7 - - - -
24/05:31pm 12.4 SSW 15 21 1010.1 - 6.4 - Partly cloudy 7 - - - -
24/05:30pm 12.4 SSW 15 21 1010.1 - 6.4 - Partly cloudy 6 - - - -
24/05:00pm 12.8 SSW 12 20 1009.3 - 5.0 - Partly cloudy 2 - - - -
24/04:34pm 13.7 SSW 13 17 1008.6 - 0.8 - Partly cloudy 5 - - - -
24/04:30pm 14.1 S 13 17 1008.4 - 0.2 - Partly cloudy 8 - - - -
24/04:00pm 15.6 SSE 12 17 1007.3 - 0.0 - Partly cloudy 10 - - - -
24/03:30pm 15.9 SSE 12 16 1007.1 - 0.0 - - 10 - - - -
24/03:00pm 16.2 SSE 13 17 1006.8 - 0.0 - Mostly clear 10 - - - -
24/02:30pm 17.1 SSE 11 16 1006.7 - 0.0 - Partly cloudy 10 - - - -
24/02:00pm 16.9 SSE 11 17 1006.6 - 0.0 - Partly cloudy 10 - - - -
24/01:30pm 18.6 S 12 22 1006.1 - 0.0 - Partly cloudy 10 - - - -
24/01:25pm 19.9 WSW 13 22 1006.0 - 0.0 - Partly cloudy 10 - - - -
24/01:00pm 18.9 E 7 11 1006.3 - 0.0 - Partly cloudy 10 - - - -
24/12:30pm 19.7 WSW 9 15 1006.5 - 0.0 - Partly cloudy 10 - - - -
24/12:00pm 18.9 WSW 11 15 1006.9 - 0.0 - Cloudy 10 - - - -
24/11:30am 18.1 W 4 8 1007.0 - 0.0 - Partly cloudy 10 - - - -
24/11:00am 17.3 W 5 8 1007.2 - 0.0 - Partly cloudy 10 - - - -
24/10:30am 16.4 W 7 9 1007.4 - 0.0 - Partly cloudy 10 - - - -
24/10:00am 15.9 NW 3 5 1007.1 - 0.0 - Partly cloudy 10 - - - -
24/09:30am 14.7 W 5 7 1007.7 - 0.0 - Cloudy 10 - - - -
24/09:00am 13.8 NNW 4 6 1007.8 - 2.4 Recent precip. Cloudy 10 - - - -
24/08:30am 13.3 NNE 3 5 1007.9 - 2.2 - Partly cloudy 9 - - - -
24/08:00am 12.6 W 5 6 1007.6 - 2.0 - Partly cloudy 10 - - - -
24/07:30am 12.7 NW 4 5 1006.9 - 2.0 - Cloudy 10 - - - -
24/07:00am 12.5 NNE 5 7 1007.0 - 2.0 - Partly cloudy 10 - - - -
24/06:30am 12.6 NE 10 15 1006.0 - 1.8 - Partly cloudy 9 - - - -
24/06:00am 12.7 NE 7 10 1006.6 - 1.4 - Cloudy 10 - - - -
24/05:30am 12.8 NE 6 9 1006.6 - 1.4 - Cloudy 10 - - - -
24/05:00am 12.7 N 4 5 1006.5 - 1.4 - Partly cloudy 10 - - - -
24/04:30am 12.7 N 7 9 1006.3 - 0.8 - Cloudy 10 - - - -
24/04:00am 13.3 NNW 7 8 1006.0 - 0.0 - Partly cloudy 10 - - - -
24/03:30am 14.3 NNW 5 6 1005.4 - 0.0 - Partly cloudy 10 - - - -
24/03:00am 14.5 WNW 7 8 1005.8 - 0.0 - Partly cloudy 10 - - - -
24/02:30am 14.7 W 4 6 1005.5 - 0.0 - - 10 - - - -
24/02:00am 15.6 NW 7 9 1005.9 - 0.0 - - 10 - - - -
24/01:30am 16.3 NNW 11 15 1005.7 - 0.0 - - 10 - - - -
24/01:00am 15.8 NNW 8 10 1005.5 - 0.0 - - 10 - - - -
24/12:30am 16.6 NNW 8 11 1005.6 - 0.0 - - 10 - - - -
24/12:00am 17.1 N 10 14 1006.0 - 0.0 - Cloudy 10 - - - -
 
Date/Time
CST
Temp
°C
Wind Pressure Rain since
9am
mm
Weather Cloud Vis
km
Sea
Height
m
Swell
Dir  Spd
kts
Gust
kts
hPa Trend Height
m
Period
s
Dir
23/11:30pm 17.8 N 11 16 1006.0 - 0.0 - - 10 - - - -
23/11:00pm 17.8 N 11 14 1006.1 - 0.0 - - 10 - - - -
23/10:30pm 16.1 N 6 8 1006.4 - 0.0 - - 10 - - - -
23/10:00pm 17.8 NNE 9 12 1006.4 - 0.0 - - 10 - - - -
23/09:30pm 17.8 N 8 12 1006.8 - 0.0 - - 10 - - - -
23/09:00pm 18.8 N 12 17 1006.7 - 0.0 - Partly cloudy 10 - - - -
23/08:30pm 18.6 N 13 16 1006.8 - 0.0 - - 10 - - - -
23/08:00pm 18.9 N 14 20 1006.6 - 0.0 - - 10 - - - -
23/07:30pm 18.4 NNE 8 11 1006.6 - 0.0 - - 10 - - - -
23/07:00pm 19.0 NNE 10 13 1006.5 - 0.0 - - 10 - - - -
23/06:30pm 19.8 NNE 10 15 1006.2 - 0.0 - - 10 - - - -
23/06:00pm 20.8 NNE 12 17 1006.2 - 0.0 - - 10 - - - -
23/05:30pm 21.7 NNE 13 19 1006.0 - 0.0 - - 10 - - - -
23/05:00pm 22.4 N 15 21 1005.9 - 0.0 - - 10 - - - -
23/04:30pm 22.5 N 16 22 1005.9 - 0.0 - - 10 - - - -
23/04:00pm 22.7 N 16 25 1006.3 - 0.0 - - 10 - - - -
23/03:51pm 22.5 N 15 25 1006.4 - 0.0 - - 10 - - - -
23/03:30pm 22.7 N 16 21 1006.5 - 0.0 - - 10 - - - -
23/03:00pm 22.8 N 15 21 1007.1 - 0.0 - - 10 - - - -
23/02:30pm 21.9 N 17 26 1007.7 - 0.0 - - 10 - - - -
23/02:26pm 21.6 N 16 26 1007.8 - 0.0 - - 10 - - - -
23/02:00pm 21.8 N 16 23 1008.2 - 0.0 - - 10 - - - -
23/01:30pm 21.3 N 15 20 1008.9 - 0.0 - - 10 - - - -
23/01:00pm 20.6 N 15 20 1009.6 - 0.0 - - 10 - - - -
23/12:30pm 20.1 NNW 17 25 1010.2 - 0.0 - - 10 - - - -
23/12:00pm 19.9 N 16 21 1010.8 - 0.0 - - 10 - - - -

Other Formats:

Comma delimited format used in spreadsheet applications
http://www.bom.gov.au/fwo/IDS60701/IDS60701.95664.axf

JavaScript Object Notation format (JSON) in row-major order
http://www.bom.gov.au/fwo/IDS60701/IDS60701.95664.json